createdAt,value
2022-08-08T00:01:08.720Z,2.10
2022-08-08T00:06:28.361Z,1.92
2022-08-08T00:11:46.742Z,1.92
2022-08-08T00:17:22.481Z,2.10
2022-08-08T00:22:30.347Z,1.95
2022-08-08T00:27:36.925Z,1.77
2022-08-08T00:32:47.615Z,1.92
2022-08-08T00:38:32.291Z,1.98
2022-08-08T00:44:15.546Z,1.93
2022-08-08T00:49:58.939Z,1.70
2022-08-08T00:55:36.333Z,1.60
2022-08-08T01:00:58.757Z,1.80
2022-08-08T01:06:35.048Z,1.70
2022-08-08T01:12:13.846Z,1.80
2022-08-08T01:18:02.308Z,1.70
2022-08-08T01:24:02.832Z,1.85
2022-08-08T01:29:59.231Z,1.70
2022-08-08T01:36:01.093Z,1.83
2022-08-08T01:41:16.986Z,1.80
2022-08-08T01:46:52.093Z,1.83
2022-08-08T01:52:55.778Z,2.00
2022-08-08T01:58:04.524Z,1.90
2022-08-08T02:03:56.156Z,1.88
2022-08-08T02:08:58.657Z,2.00
2022-08-08T02:14:15.306Z,2.00
2022-08-08T02:19:41.804Z,2.10
2022-08-08T02:24:53.381Z,2.00
2022-08-08T02:30:07.072Z,1.80
2022-08-08T02:36:03.454Z,2.15
2022-08-08T02:42:04.043Z,2.03
2022-08-08T02:47:47.023Z,2.10
2022-08-08T02:53:09.947Z,1.90
2022-08-08T02:58:49.286Z,1.90
2022-08-08T03:05:08.272Z,1.90
2022-08-08T03:10:33.672Z,1.83
2022-08-08T03:16:12.914Z,1.65
2022-08-08T03:21:54.576Z,1.85
2022-08-08T03:27:11.127Z,1.77
2022-08-08T03:32:34.289Z,2.00
2022-08-08T03:38:54.684Z,1.83
2022-08-08T03:43:15.841Z,1.60
2022-08-08T03:49:09.109Z,1.50
2022-08-08T03:53:47.753Z,1.83
2022-08-08T04:09:59.002Z,1.80
2022-08-08T04:14:56.570Z,1.85
2022-08-08T04:20:01.924Z,1.80
2022-08-08T04:25:09.157Z,1.90
2022-08-08T04:30:20.585Z,1.83
2022-08-08T04:35:29.404Z,1.90
2022-08-08T04:40:36.547Z,1.92
2022-08-08T04:45:41.653Z,1.90
2022-08-08T04:50:46.885Z,1.70
2022-08-08T04:55:55.861Z,1.40
2022-08-08T05:01:08.991Z,1.40
2022-08-08T05:06:18.359Z,1.80
2022-08-08T05:11:29.933Z,1.90
2022-08-08T05:16:53.071Z,1.63
2022-08-08T05:22:06.243Z,1.70
2022-08-08T05:27:10.806Z,1.30
2022-08-08T05:32:18.105Z,1.58
2022-08-08T05:37:39.432Z,1.60
2022-08-08T05:42:52.885Z,1.20
2022-08-08T05:48:00.579Z,1.10
2022-08-08T05:53:54.892Z,1.23
2022-08-08T05:58:35.963Z,1.80
2022-08-08T06:03:42.847Z,1.10
2022-08-08T06:09:41.626Z,1.23
2022-08-08T06:14:26.490Z,1.38
2022-08-08T06:19:33.370Z,1.17
2022-08-08T06:24:40.209Z,1.30
2022-08-08T06:30:02.256Z,1.10
2022-08-08T06:36:08.914Z,1.10
2022-08-08T06:40:48.395Z,0.98
2022-08-08T06:45:53.191Z,1.10
2022-08-08T06:50:59.245Z,1.08
2022-08-08T06:56:04.890Z,1.00
2022-08-08T07:02:18.235Z,0.95
2022-08-08T07:06:45.026Z,1.00
2022-08-08T07:11:51.968Z,1.00
2022-08-08T07:17:09.274Z,0.83
2022-08-08T07:22:28.739Z,0.93
2022-08-08T07:27:47.336Z,0.77
2022-08-08T07:33:02.442Z,1.10
2022-08-08T07:38:18.329Z,0.90
2022-08-08T07:43:37.645Z,1.00
2022-08-08T07:48:46.626Z,1.10
2022-08-08T07:54:03.549Z,1.10
2022-08-08T07:59:19.455Z,1.02
2022-08-08T08:04:40.036Z,1.20
2022-08-08T08:09:46.956Z,1.30
2022-08-08T08:14:55.959Z,1.30
2022-08-08T08:20:05.708Z,1.10
2022-08-08T08:25:16.897Z,1.30
2022-08-08T08:30:39.797Z,1.03
2022-08-08T08:36:18.949Z,1.30
2022-08-08T08:41:13.254Z,1.20
2022-08-08T08:46:25.932Z,1.20
2022-08-08T08:51:31.482Z,1.10
2022-08-08T08:56:39.222Z,1.20
2022-08-08T09:01:51.761Z,1.20
2022-08-08T09:22:49.996Z,1.20
2022-08-08T09:27:58.540Z,1.10
2022-08-08T09:33:12.276Z,1.30
2022-08-08T09:38:53.200Z,1.05
2022-08-08T09:44:13.059Z,1.10
2022-08-08T09:49:42.570Z,1.10
2022-08-08T09:54:45.965Z,1.00
2022-08-08T10:00:32.929Z,1.10
2022-08-08T10:05:22.854Z,1.00
2022-08-08T10:10:30.464Z,1.10
2022-08-08T10:15:39.596Z,1.00
2022-08-08T10:20:58.008Z,1.10
2022-08-08T10:26:05.286Z,1.10
2022-08-08T10:31:49.558Z,1.10
2022-08-08T10:36:53.847Z,1.00
2022-08-08T10:42:14.867Z,0.95
2022-08-08T10:47:21.715Z,1.50
2022-08-08T10:57:43.203Z,0.90
2022-08-08T11:02:55.448Z,0.93
2022-08-08T11:08:37.219Z,1.00
2022-08-08T11:13:31.753Z,1.20
2022-08-08T11:18:37.887Z,1.10
2022-08-08T11:23:44.824Z,1.00
2022-08-08T11:29:07.601Z,0.98
2022-08-08T11:34:23.513Z,0.90
2022-08-08T11:39:37.153Z,1.00
2022-08-08T11:44:41.642Z,1.00
2022-08-08T11:49:50.344Z,1.00
2022-08-08T11:54:54.497Z,0.82
2022-08-08T12:20:48.126Z,0.90
2022-08-08T12:25:52.724Z,0.90
2022-08-08T12:31:07.525Z,0.83
2022-08-08T12:36:14.659Z,0.80
2022-08-08T12:41:35.195Z,0.82
2022-08-08T12:46:59.295Z,0.90
2022-08-08T12:52:14.134Z,0.80
2022-08-08T12:57:31.252Z,0.90
2022-08-08T13:02:36.318Z,1.08
2022-08-08T13:08:03.625Z,1.00
2022-08-08T13:13:08.129Z,1.02
2022-08-08T13:18:14.009Z,1.00
2022-08-08T13:23:30.846Z,1.00
2022-08-08T13:28:42.507Z,0.90
2022-08-08T13:33:49.881Z,1.20
2022-08-08T13:39:00.389Z,1.00
2022-08-08T13:44:04.849Z,0.90
2022-08-08T13:50:37.106Z,1.00
2022-08-08T13:54:49.491Z,1.10
2022-08-08T14:00:05.413Z,1.67
2022-08-08T14:05:22.250Z,1.80
2022-08-08T14:10:33.543Z,0.90
2022-08-08T14:15:46.479Z,1.00
2022-08-08T14:21:03.659Z,1.00
2022-08-08T14:26:28.009Z,1.00
2022-08-08T14:32:05.752Z,0.90
2022-08-08T14:36:55.022Z,1.00
2022-08-08T14:42:07.692Z,0.90
2022-08-08T14:47:16.698Z,0.90
2022-08-08T14:52:24.550Z,0.88
2022-08-08T14:58:03.580Z,0.90
2022-08-08T15:03:14.333Z,0.90
2022-08-08T15:08:22.436Z,0.80
2022-08-08T15:14:00.752Z,0.88
2022-08-08T15:19:05.114Z,0.60
2022-08-08T15:24:12.674Z,0.73
2022-08-08T15:29:18.805Z,0.85
2022-08-08T15:34:31.316Z,0.70
2022-08-08T15:39:38.092Z,0.65
2022-08-08T15:44:44.075Z,0.57
2022-08-08T15:49:49.162Z,0.70
2022-08-08T15:54:52.922Z,0.60
2022-08-08T16:00:18.214Z,0.80
2022-08-08T16:05:23.652Z,0.80
2022-08-08T16:13:28.302Z,0.70
2022-08-08T16:15:59.285Z,0.70
2022-08-08T16:21:25.840Z,0.80
2022-08-08T16:26:35.321Z,0.80
2022-08-08T16:31:48.541Z,0.88
2022-08-08T16:36:53.372Z,0.77
2022-08-08T16:42:01.422Z,0.80
2022-08-08T16:47:21.591Z,0.80
2022-08-08T16:55:05.575Z,0.70
2022-08-08T16:58:15.437Z,0.70
2022-08-08T17:03:25.365Z,0.90
2022-08-08T17:08:41.723Z,0.73
2022-08-08T17:14:00.738Z,0.70
2022-08-08T17:19:07.062Z,0.70
2022-08-08T17:24:27.106Z,0.73
2022-08-08T17:29:33.649Z,0.70
2022-08-08T17:35:00.137Z,1.10
2022-08-08T17:40:10.858Z,0.70
2022-08-08T17:45:23.303Z,1.00
2022-08-08T17:50:28.721Z,1.13
2022-08-08T17:56:04.983Z,1.08
2022-08-08T18:00:57.195Z,1.00
2022-08-08T18:06:02.730Z,0.90
2022-08-08T18:11:15.123Z,0.93
2022-08-08T18:16:22.959Z,1.00
2022-08-08T18:22:00.019Z,0.90
2022-08-08T18:26:56.811Z,0.93
2022-08-08T18:32:00.530Z,1.10
2022-08-08T18:37:10.219Z,1.00
2022-08-08T18:42:33.658Z,1.00
2022-08-08T18:47:37.251Z,1.00
2022-08-08T18:52:42.209Z,0.90
2022-08-08T18:57:45.878Z,1.10
2022-08-08T19:02:55.528Z,1.13
2022-08-08T19:08:02.273Z,0.90
2022-08-08T19:13:06.494Z,0.90
2022-08-08T19:18:31.986Z,0.90
2022-08-08T19:23:49.045Z,1.20
2022-08-08T19:28:52.394Z,1.00
2022-08-08T19:34:30.464Z,1.10
2022-08-08T19:39:23.132Z,1.27
2022-08-08T19:44:34.780Z,1.60
2022-08-08T19:50:00.253Z,1.40
2022-08-08T19:55:09.577Z,1.35
2022-08-08T20:00:30.490Z,1.30
2022-08-08T20:06:16.316Z,1.27
2022-08-08T20:11:00.196Z,1.30
2022-08-08T20:16:03.647Z,1.48
2022-08-08T20:21:08.268Z,1.23
2022-08-08T20:26:16.112Z,1.30
2022-08-08T20:31:19.861Z,1.40
2022-08-08T20:36:24.994Z,1.40
2022-08-08T20:41:32.094Z,1.30
2022-08-08T20:46:37.695Z,1.30
2022-08-08T20:51:41.193Z,1.42
2022-08-08T20:57:16.282Z,1.60
2022-08-08T21:02:12.763Z,1.60
2022-08-08T21:07:16.583Z,1.40
2022-08-08T21:12:24.830Z,1.23
2022-08-08T21:17:37.661Z,1.52
2022-08-08T21:22:41.350Z,1.23
2022-08-08T21:28:09.376Z,1.30
2022-08-08T21:33:11.625Z,1.13
2022-08-08T21:38:17.250Z,1.17
2022-08-08T21:43:22.978Z,1.27
2022-08-08T21:48:30.143Z,1.10
2022-08-08T21:54:30.753Z,1.10
2022-08-08T21:59:09.942Z,1.10
2022-08-08T22:04:13.379Z,1.17
2022-08-08T22:09:18.768Z,1.27
2022-08-08T22:14:26.841Z,1.30
2022-08-08T22:20:10.591Z,1.30
2022-08-08T22:24:56.331Z,1.30
2022-08-08T22:30:03.342Z,1.30
2022-08-08T22:35:08.501Z,1.10
2022-08-08T22:40:16.585Z,1.27
2022-08-08T22:45:21.825Z,1.30
2022-08-08T22:50:28.353Z,1.20
2022-08-08T22:55:32.166Z,1.40
2022-08-08T23:00:59.800Z,1.38
2022-08-08T23:06:03.808Z,1.50
2022-08-08T23:11:13.366Z,1.50
2022-08-08T23:16:38.200Z,1.30
2022-08-08T23:21:41.524Z,1.30
2022-08-08T23:26:55.776Z,1.40
2022-08-08T23:32:01.810Z,1.50
2022-08-08T23:37:08.605Z,1.58
2022-08-08T23:42:15.107Z,1.50
2022-08-08T23:49:08.551Z,1.42
2022-08-08T23:52:46.436Z,1.45
2022-08-08T23:57:53.196Z,1.38
